createdAt,value
2023-05-11T00:00:14.641Z,8.89
2023-05-11T00:02:45.903Z,8.76
2023-05-11T00:05:14.963Z,8.64
2023-05-11T00:07:43.756Z,8.53
2023-05-11T00:10:15.680Z,8.42
2023-05-11T00:12:44.726Z,8.33
2023-05-11T00:15:15.678Z,8.29
2023-05-11T00:17:45.809Z,8.24
2023-05-11T00:20:14.861Z,8.19
2023-05-11T00:22:44.942Z,8.20
2023-05-11T00:25:13.987Z,8.16
2023-05-11T00:27:46.181Z,8.12
2023-05-11T00:30:17.028Z,8.10
2023-05-11T00:32:46.651Z,8.08
2023-05-11T00:35:15.383Z,8.06
2023-05-11T00:37:44.938Z,8.00
2023-05-11T00:40:13.847Z,7.96
2023-05-11T00:42:42.652Z,7.93
2023-05-11T00:45:13.713Z,7.88
2023-05-11T00:47:44.930Z,7.88
2023-05-11T00:50:13.850Z,7.89
2023-05-11T00:52:43.522Z,7.88
2023-05-11T00:55:14.908Z,7.87
2023-05-11T00:57:43.842Z,7.83
2023-05-11T01:00:14.800Z,7.80
2023-05-11T01:02:45.549Z,7.77
2023-05-11T01:05:14.880Z,7.76
2023-05-11T01:07:53.262Z,7.73
2023-05-11T01:10:33.930Z,7.71
2023-05-11T01:13:12.192Z,7.63
2023-05-11T01:15:49.521Z,7.62
2023-05-11T01:18:31.406Z,7.57
2023-05-11T01:21:07.059Z,7.53
2023-05-11T01:24:02.464Z,7.48
2023-05-11T01:27:07.550Z,7.41
2023-05-11T01:30:00.873Z,7.35
2023-05-11T01:32:36.736Z,7.29
2023-05-11T01:35:10.183Z,7.25
2023-05-11T01:37:47.807Z,7.25
2023-05-11T01:40:18.931Z,7.15
2023-05-11T01:42:55.078Z,7.12
2023-05-11T01:45:25.814Z,7.09
2023-05-11T01:48:00.557Z,7.08
2023-05-11T01:50:32.679Z,7.02
2023-05-11T01:53:06.805Z,6.99
2023-05-11T01:55:37.165Z,6.93
2023-05-11T01:58:07.803Z,6.85
2023-05-11T02:00:37.877Z,6.77
2023-05-11T02:03:10.955Z,6.72
2023-05-11T02:05:42.576Z,6.68
2023-05-11T02:08:13.372Z,6.55
2023-05-11T02:10:43.951Z,6.46
2023-05-11T02:13:13.615Z,6.45
2023-05-11T02:15:46.977Z,6.43
2023-05-11T02:18:17.764Z,6.36
2023-05-11T02:20:48.219Z,6.34
2023-05-11T02:23:18.528Z,6.28
2023-05-11T02:25:48.622Z,6.24
2023-05-11T02:28:17.533Z,6.23
2023-05-11T02:30:48.594Z,6.15
2023-05-11T02:33:23.453Z,6.09
2023-05-11T02:35:55.509Z,6.07
2023-05-11T02:38:32.550Z,6.01
2023-05-11T02:41:07.495Z,5.92
2023-05-11T02:43:41.339Z,5.88
2023-05-11T02:46:18.545Z,5.88
2023-05-11T02:48:54.680Z,5.88
2023-05-11T02:51:31.439Z,5.82
2023-05-11T02:54:02.612Z,5.76
2023-05-11T02:56:35.720Z,5.70
2023-05-11T02:59:05.396Z,5.57
2023-05-11T03:01:35.273Z,5.50
2023-05-11T03:04:07.259Z,5.56
2023-05-11T03:06:37.418Z,5.62
2023-05-11T03:09:10.304Z,5.69
2023-05-11T03:11:45.083Z,5.76
2023-05-11T03:14:14.411Z,5.89
2023-05-11T03:16:45.815Z,5.98
2023-05-11T03:19:18.121Z,6.10
2023-05-11T03:21:48.021Z,6.23
2023-05-11T03:24:18.997Z,6.32
2023-05-11T03:26:49.406Z,6.42
2023-05-11T03:29:19.069Z,6.49
2023-05-11T03:31:51.217Z,6.53
2023-05-11T03:34:24.326Z,6.56
2023-05-11T03:36:56.673Z,6.56
2023-05-11T03:39:26.055Z,6.56
2023-05-11T03:41:56.593Z,6.57
2023-05-11T03:44:27.763Z,6.61
2023-05-11T03:47:01.061Z,6.61
2023-05-11T03:49:31.802Z,6.60
2023-05-11T03:52:01.506Z,6.63
2023-05-11T03:54:30.567Z,6.66
2023-05-11T03:56:59.476Z,6.72
2023-05-11T03:59:28.109Z,6.75
2023-05-11T04:01:59.000Z,6.83
2023-05-11T04:04:36.034Z,6.90
2023-05-11T04:07:07.198Z,6.96
2023-05-11T04:09:39.037Z,6.99
2023-05-11T04:12:08.130Z,7.06
2023-05-11T04:14:37.087Z,7.11
2023-05-11T04:17:08.795Z,7.17
2023-05-11T04:19:38.806Z,7.20
2023-05-11T04:22:07.557Z,7.23
2023-05-11T04:24:46.488Z,7.27
2023-05-11T04:27:17.147Z,7.29
2023-05-11T04:29:45.843Z,7.37
2023-05-11T04:32:16.631Z,7.43
2023-05-11T04:34:47.436Z,7.47
2023-05-11T04:37:19.157Z,7.56
2023-05-11T04:39:47.767Z,7.63
2023-05-11T04:42:16.451Z,7.70
2023-05-11T04:44:47.973Z,7.78
2023-05-11T04:47:19.652Z,7.91
2023-05-11T04:49:50.996Z,8.02
2023-05-11T04:52:19.849Z,8.13
2023-05-11T04:54:50.727Z,8.25
2023-05-11T04:57:19.369Z,8.36
2023-05-11T04:59:49.071Z,8.47
2023-05-11T05:02:17.871Z,8.61
2023-05-11T05:04:47.279Z,8.75
2023-05-11T05:07:18.192Z,8.90
2023-05-11T05:09:47.610Z,9.04
2023-05-11T05:12:19.886Z,9.17
2023-05-11T05:14:48.689Z,9.30
2023-05-11T05:17:20.443Z,9.40
2023-05-11T05:19:49.296Z,9.56
2023-05-11T05:22:20.308Z,9.73
2023-05-11T05:24:49.259Z,9.89
2023-05-11T05:27:18.864Z,10.10
2023-05-11T05:29:48.234Z,10.29
2023-05-11T05:32:17.289Z,10.47
2023-05-11T05:34:49.120Z,10.63
2023-05-11T05:37:22.918Z,10.83
2023-05-11T05:39:52.821Z,11.02
2023-05-11T05:42:22.794Z,11.21
2023-05-11T05:44:52.442Z,11.41
2023-05-11T05:47:22.141Z,11.63
2023-05-11T05:49:51.105Z,11.89
2023-05-11T05:52:23.999Z,12.16
2023-05-11T05:54:52.763Z,12.43
2023-05-11T05:57:22.833Z,12.69
2023-05-11T05:59:52.077Z,12.97
2023-05-11T06:02:22.087Z,13.22
2023-05-11T06:04:51.299Z,13.43
2023-05-11T06:07:20.620Z,13.60
2023-05-11T06:09:51.053Z,13.85
2023-05-11T06:12:20.062Z,14.09
2023-05-11T06:14:51.283Z,14.31
2023-05-11T06:17:20.749Z,14.52
2023-05-11T06:19:51.664Z,14.70
2023-05-11T06:22:26.611Z,14.88
2023-05-11T06:24:58.327Z,15.07
2023-05-11T06:27:29.405Z,15.30
2023-05-11T06:30:03.410Z,15.47
2023-05-11T06:32:37.073Z,15.64
2023-05-11T06:35:11.017Z,15.82
2023-05-11T06:37:40.168Z,15.95
2023-05-11T06:40:11.572Z,16.12
2023-05-11T06:42:40.795Z,16.32
2023-05-11T06:45:12.588Z,16.45
2023-05-11T06:47:46.415Z,16.58
2023-05-11T06:50:17.259Z,16.75
2023-05-11T06:52:47.539Z,16.96
2023-05-11T06:55:18.893Z,17.15
2023-05-11T06:57:47.982Z,17.24
2023-05-11T07:00:18.144Z,17.33
2023-05-11T07:02:50.963Z,17.47
2023-05-11T07:05:25.760Z,17.55
2023-05-11T07:07:54.847Z,17.69
2023-05-11T07:10:26.391Z,17.86
2023-05-11T07:12:56.700Z,17.98
2023-05-11T07:15:25.765Z,18.08
2023-05-11T07:17:54.842Z,18.25
2023-05-11T07:20:24.122Z,18.29
2023-05-11T07:22:53.605Z,18.43
2023-05-11T07:25:22.771Z,18.61
2023-05-11T07:27:53.385Z,18.77
2023-05-11T07:30:23.196Z,18.96
2023-05-11T07:32:52.858Z,19.09
2023-05-11T07:35:23.889Z,19.28
2023-05-11T07:37:53.238Z,19.36
2023-05-11T07:40:22.708Z,19.50
2023-05-11T07:42:54.357Z,19.59
2023-05-11T07:45:23.437Z,19.72
2023-05-11T07:47:52.938Z,19.85
2023-05-11T07:50:24.461Z,19.94
2023-05-11T07:52:54.615Z,19.93
2023-05-11T07:55:25.248Z,19.97
2023-05-11T07:57:55.916Z,20.13
2023-05-11T08:00:25.251Z,20.31
2023-05-11T08:02:54.782Z,20.48
2023-05-11T08:05:27.312Z,20.64
2023-05-11T08:07:56.461Z,20.71
2023-05-11T08:10:25.862Z,20.91
2023-05-11T08:12:56.799Z,20.91
2023-05-11T08:15:26.091Z,21.06
2023-05-11T08:17:55.360Z,21.11
2023-05-11T08:20:25.837Z,21.14
2023-05-11T08:22:55.356Z,21.06
2023-05-11T08:25:24.969Z,21.14
2023-05-11T08:27:55.636Z,21.38
2023-05-11T08:30:25.813Z,21.67
2023-05-11T08:32:58.974Z,21.85
2023-05-11T08:35:28.141Z,21.98
2023-05-11T08:37:57.514Z,21.88
2023-05-11T08:40:29.075Z,21.92
2023-05-11T08:43:02.673Z,22.00
2023-05-11T08:45:35.230Z,21.92
2023-05-11T08:48:04.958Z,21.76
2023-05-11T08:50:34.885Z,21.71
2023-05-11T08:53:04.466Z,21.72
2023-05-11T08:55:35.699Z,21.99
2023-05-11T08:58:08.094Z,22.36
2023-05-11T09:00:37.689Z,22.59
2023-05-11T09:03:08.689Z,22.56
2023-05-11T09:05:38.237Z,22.72
2023-05-11T09:08:09.524Z,23.01
2023-05-11T09:10:38.896Z,23.13
2023-05-11T09:13:08.963Z,22.92
2023-05-11T09:15:38.344Z,22.93
2023-05-11T09:18:08.111Z,22.98
2023-05-11T09:20:36.909Z,23.04
2023-05-11T09:23:05.883Z,23.23
2023-05-11T09:25:35.228Z,23.46
2023-05-11T09:28:04.430Z,23.69
2023-05-11T09:30:36.214Z,23.92
2023-05-11T09:33:05.444Z,24.16
2023-05-11T09:35:36.982Z,24.33
2023-05-11T09:38:08.070Z,24.31
2023-05-11T09:40:43.341Z,24.32
2023-05-11T09:43:18.610Z,24.45
2023-05-11T09:45:49.985Z,24.66
2023-05-11T09:48:30.295Z,24.70
2023-05-11T09:51:04.835Z,24.90
2023-05-11T09:53:41.156Z,24.78
2023-05-11T09:56:10.381Z,24.86
2023-05-11T09:58:48.560Z,25.17
2023-05-11T10:01:20.560Z,25.05
2023-05-11T10:03:52.019Z,25.21
2023-05-11T10:06:21.676Z,25.01
2023-05-11T10:08:50.754Z,25.04
2023-05-11T10:11:26.042Z,25.00
2023-05-11T10:13:56.067Z,24.95
2023-05-11T10:16:27.119Z,24.97
2023-05-11T10:18:57.078Z,25.22
2023-05-11T10:21:26.314Z,25.34
2023-05-11T10:23:55.325Z,25.27
2023-05-11T10:26:24.876Z,25.41
2023-05-11T10:28:55.074Z,25.53
2023-05-11T10:31:26.377Z,25.28
2023-05-11T10:37:02.895Z,25.25
2023-05-11T10:39:31.658Z,25.39
2023-05-11T10:42:21.740Z,25.68
2023-05-11T10:45:15.810Z,25.48
2023-05-11T10:48:24.703Z,25.19
2023-05-11T10:51:17.105Z,25.52
2023-05-11T10:57:26.754Z,26.18
2023-05-11T11:00:43.936Z,26.29
2023-05-11T11:03:13.552Z,26.43
2023-05-11T11:05:44.202Z,26.39
2023-05-11T11:08:14.719Z,26.42
2023-05-11T11:10:46.376Z,26.59
2023-05-11T11:13:20.262Z,26.65
2023-05-11T11:16:16.609Z,26.67
2023-05-11T11:18:46.063Z,26.76
2023-05-11T11:21:16.135Z,26.85
2023-05-11T11:23:50.557Z,27.04
2023-05-11T11:26:41.068Z,26.88
2023-05-11T11:29:12.304Z,26.78
2023-05-11T11:31:42.415Z,26.79
2023-05-11T11:34:34.389Z,26.80
2023-05-11T11:37:12.451Z,26.08
2023-05-11T11:40:02.592Z,26.00
2023-05-11T11:42:41.969Z,26.21
2023-05-11T11:45:31.832Z,25.94
2023-05-11T11:48:13.517Z,25.85
2023-05-11T11:50:43.086Z,25.90
2023-05-11T11:53:32.070Z,25.69
2023-05-11T11:56:02.520Z,25.81
2023-05-11T11:59:04.595Z,25.55
2023-05-11T12:01:39.051Z,24.95
2023-05-11T12:04:46.303Z,24.63
2023-05-11T12:07:17.671Z,24.73
2023-05-11T12:09:48.125Z,24.97
2023-05-11T12:12:21.481Z,25.22
2023-05-11T12:14:51.680Z,24.71
2023-05-11T12:17:29.860Z,24.97
2023-05-11T12:20:13.974Z,25.29
2023-05-11T12:22:44.804Z,25.70
2023-05-11T12:25:16.054Z,26.03
2023-05-11T12:27:55.378Z,26.13
2023-05-11T12:30:26.290Z,26.21
2023-05-11T12:32:56.904Z,26.10
2023-05-11T12:35:28.223Z,26.09
2023-05-11T12:37:58.556Z,26.20
2023-05-11T12:40:28.316Z,26.19
2023-05-11T12:43:00.597Z,26.00
2023-05-11T12:45:30.148Z,26.23
2023-05-11T12:47:59.204Z,26.50
2023-05-11T12:50:28.012Z,26.52
2023-05-11T12:53:13.148Z,25.82
2023-05-11T12:55:42.934Z,25.19
2023-05-11T12:58:15.743Z,25.29
2023-05-11T13:00:55.076Z,25.13
2023-05-11T13:03:25.281Z,24.71
2023-05-11T13:06:08.578Z,24.23
2023-05-11T13:08:38.345Z,23.56
2023-05-11T13:11:25.864Z,23.03
2023-05-11T13:14:01.602Z,22.95
2023-05-11T13:16:31.975Z,23.58
2023-05-11T13:19:03.513Z,24.29
2023-05-11T13:21:33.652Z,24.92
2023-05-11T13:24:04.081Z,25.28
2023-05-11T13:26:33.398Z,25.23
2023-05-11T13:29:10.172Z,24.84
2023-05-11T13:31:46.573Z,25.13
2023-05-11T13:34:17.006Z,25.33
2023-05-11T13:36:49.147Z,25.44
2023-05-11T13:39:19.704Z,25.41
2023-05-11T13:41:48.743Z,25.34
2023-05-11T13:44:19.448Z,24.92
2023-05-11T13:46:48.340Z,24.60
2023-05-11T13:49:17.754Z,24.76
2023-05-11T13:51:46.860Z,24.97
2023-05-11T13:54:16.202Z,25.04
2023-05-11T13:56:45.990Z,24.88
2023-05-11T13:59:15.395Z,24.74
2023-05-11T14:01:46.324Z,24.69
2023-05-11T14:04:15.635Z,24.15
2023-05-11T14:06:46.152Z,24.10
2023-05-11T14:09:15.181Z,24.19
2023-05-11T14:11:44.521Z,24.34
2023-05-11T14:14:14.335Z,24.37
2023-05-11T14:16:43.839Z,24.32
2023-05-11T14:19:15.430Z,24.29
2023-05-11T14:21:44.665Z,24.18
2023-05-11T14:24:14.278Z,24.21
2023-05-11T14:26:43.440Z,24.16
2023-05-11T14:29:12.544Z,24.05
2023-05-11T14:31:42.836Z,23.95
2023-05-11T14:34:13.518Z,23.93
2023-05-11T14:36:43.050Z,23.91
2023-05-11T14:39:12.274Z,23.84
2023-05-11T14:41:41.700Z,23.71
2023-05-11T14:44:11.140Z,23.63
2023-05-11T14:46:40.381Z,23.57
2023-05-11T14:49:09.549Z,23.57
2023-05-11T14:51:40.162Z,23.50
2023-05-11T14:54:09.338Z,23.41
2023-05-11T14:56:38.369Z,23.31
2023-05-11T14:59:07.232Z,23.22
2023-05-11T15:01:36.957Z,23.15
2023-05-11T15:04:09.648Z,23.07
2023-05-11T15:06:40.674Z,22.87
2023-05-11T15:09:09.902Z,22.62
2023-05-11T15:11:39.396Z,22.54
2023-05-11T15:14:11.054Z,22.42
2023-05-11T15:16:40.822Z,22.26
2023-05-11T15:19:10.298Z,22.15
2023-05-11T15:21:41.020Z,22.08
2023-05-11T15:24:11.154Z,22.09
2023-05-11T15:26:40.530Z,22.16
2023-05-11T15:29:09.621Z,22.11
2023-05-11T15:31:39.088Z,22.10
2023-05-11T15:34:08.242Z,22.07
2023-05-11T15:36:37.845Z,22.00
2023-05-11T15:39:09.345Z,21.86
2023-05-11T15:41:39.270Z,21.74
2023-05-11T15:44:08.269Z,21.64
2023-05-11T15:46:41.380Z,21.44
2023-05-11T15:49:10.522Z,21.35
2023-05-11T15:51:39.910Z,21.32
2023-05-11T15:54:10.929Z,21.22
2023-05-11T15:56:40.610Z,21.08
2023-05-11T15:59:09.916Z,21.01
2023-05-11T16:01:39.008Z,20.94
2023-05-11T16:04:09.514Z,20.81
2023-05-11T16:06:39.632Z,20.64
2023-05-11T16:09:11.615Z,20.58
2023-05-11T16:11:40.997Z,20.46
2023-05-11T16:14:10.493Z,20.38
2023-05-11T16:16:42.045Z,20.30
2023-05-11T16:19:11.851Z,20.22
2023-05-11T16:21:41.003Z,20.12
2023-05-11T16:24:11.733Z,20.02
2023-05-11T16:26:44.300Z,19.89
2023-05-11T16:29:14.132Z,19.75
2023-05-11T16:31:43.392Z,19.67
2023-05-11T16:34:12.786Z,19.58
2023-05-11T16:36:42.175Z,19.45
2023-05-11T16:39:12.847Z,19.33
2023-05-11T16:41:41.980Z,19.22
2023-05-11T16:44:11.498Z,19.20
2023-05-11T16:46:40.600Z,19.10
2023-05-11T16:49:10.370Z,19.03
2023-05-11T16:51:39.793Z,18.93
2023-05-11T16:54:10.664Z,18.86
2023-05-11T16:56:40.946Z,18.81
2023-05-11T16:59:11.184Z,18.77
2023-05-11T17:01:40.924Z,18.68
2023-05-11T17:04:10.476Z,18.57
2023-05-11T17:06:39.460Z,18.48
2023-05-11T17:09:09.305Z,18.43
2023-05-11T17:11:40.313Z,18.42
2023-05-11T17:14:10.839Z,18.35
2023-05-11T17:16:39.868Z,18.27
2023-05-11T17:19:09.908Z,18.19
2023-05-11T17:21:38.863Z,18.05
2023-05-11T17:24:08.176Z,17.94
2023-05-11T17:26:47.060Z,17.88
2023-05-11T17:29:19.333Z,17.76
2023-05-11T17:31:51.859Z,17.64
2023-05-11T17:34:22.354Z,17.49
2023-05-11T17:36:54.868Z,17.42
2023-05-11T17:39:24.108Z,17.36
2023-05-11T17:41:53.045Z,17.23
2023-05-11T17:44:23.821Z,17.12
2023-05-11T17:46:52.953Z,17.04
2023-05-11T17:49:21.986Z,16.91
2023-05-11T17:51:54.099Z,16.78
2023-05-11T17:54:23.466Z,16.65
2023-05-11T17:56:52.624Z,16.57
2023-05-11T17:59:23.381Z,16.47
2023-05-11T18:01:53.010Z,16.39
2023-05-11T18:04:22.787Z,16.31
2023-05-11T18:06:52.525Z,16.23
2023-05-11T18:09:22.452Z,16.15
2023-05-11T18:11:51.617Z,16.07
2023-05-11T18:14:22.667Z,15.98
2023-05-11T18:16:52.817Z,15.88
2023-05-11T18:19:21.790Z,15.83
2023-05-11T18:21:52.197Z,15.74
2023-05-11T18:24:21.827Z,15.68
2023-05-11T18:26:52.211Z,15.62
2023-05-11T18:29:22.916Z,15.55
2023-05-11T18:31:52.781Z,15.42
2023-05-11T18:34:22.063Z,15.28
2023-05-11T18:36:51.451Z,15.13
2023-05-11T18:39:20.652Z,14.99
2023-05-11T18:41:49.749Z,14.87
2023-05-11T18:44:19.437Z,14.75
2023-05-11T18:46:49.625Z,14.59
2023-05-11T18:49:18.626Z,14.43
2023-05-11T18:51:47.682Z,14.34
2023-05-11T18:54:16.909Z,14.25
2023-05-11T18:56:45.720Z,14.13
2023-05-11T18:59:17.411Z,14.03
2023-05-11T19:01:48.572Z,14.00
2023-05-11T19:04:20.572Z,13.95
2023-05-11T19:06:49.427Z,13.85
2023-05-11T19:09:18.235Z,13.80
2023-05-11T19:11:47.517Z,13.70
2023-05-11T19:14:16.387Z,13.66
2023-05-11T19:16:46.458Z,13.58
2023-05-11T19:19:15.241Z,13.51
2023-05-11T19:21:46.077Z,13.44
2023-05-11T19:24:15.033Z,13.41
2023-05-11T19:26:47.392Z,13.41
2023-05-11T19:29:24.542Z,13.32
2023-05-11T19:31:53.623Z,13.29
2023-05-11T19:34:22.739Z,13.30
2023-05-11T19:36:53.249Z,13.26
2023-05-11T19:39:22.661Z,13.23
2023-05-11T19:41:51.949Z,13.17
2023-05-11T19:44:21.003Z,13.13
2023-05-11T19:46:50.143Z,13.10
2023-05-11T19:49:19.554Z,13.07
2023-05-11T19:51:49.072Z,13.03
2023-05-11T19:54:19.292Z,12.97
2023-05-11T19:56:48.404Z,12.93
2023-05-11T19:59:17.508Z,12.87
2023-05-11T20:01:46.872Z,12.85
2023-05-11T20:04:16.052Z,12.84
2023-05-11T20:06:45.324Z,12.82
2023-05-11T20:09:14.103Z,12.84
2023-05-11T20:11:44.417Z,12.84
2023-05-11T20:14:13.518Z,12.82
2023-05-11T20:16:43.105Z,12.81
2023-05-11T20:19:12.299Z,12.75
2023-05-11T20:21:41.916Z,12.67
2023-05-11T20:24:10.948Z,12.54
2023-05-11T20:26:39.773Z,12.37
2023-05-11T20:29:10.687Z,12.25
2023-05-11T20:31:40.563Z,12.20
2023-05-11T20:34:11.921Z,12.13
2023-05-11T20:36:42.010Z,12.10
2023-05-11T20:39:11.084Z,12.06
2023-05-11T20:41:40.285Z,12.02
2023-05-11T20:44:13.898Z,12.01
2023-05-11T20:46:43.074Z,11.98
2023-05-11T20:49:22.278Z,11.92
2023-05-11T20:51:57.186Z,11.93
2023-05-11T20:54:26.286Z,11.91
2023-05-11T20:56:59.708Z,11.92
2023-05-11T21:02:07.257Z,11.94
2023-05-11T21:04:37.902Z,11.98
2023-05-11T21:07:06.810Z,11.98
2023-05-11T21:09:36.209Z,11.99
2023-05-11T21:12:06.191Z,11.99
2023-05-11T21:14:37.388Z,12.00
2023-05-11T21:17:06.423Z,11.98
2023-05-11T21:19:35.472Z,11.98
2023-05-11T21:22:05.220Z,11.98
2023-05-11T21:24:34.044Z,11.98
2023-05-11T21:27:03.319Z,11.93
2023-05-11T21:29:31.982Z,11.90
2023-05-11T21:32:02.580Z,11.83
2023-05-11T21:34:31.866Z,11.77
2023-05-11T21:37:01.215Z,11.74
2023-05-11T21:39:30.038Z,11.71
2023-05-11T21:41:59.011Z,11.72
2023-05-11T21:44:27.689Z,11.77
2023-05-11T21:46:59.563Z,11.77
2023-05-11T21:49:30.360Z,11.76
2023-05-11T21:51:59.258Z,11.75
2023-05-11T21:54:28.177Z,11.73
2023-05-11T21:56:56.988Z,11.68
2023-05-11T21:59:27.042Z,11.64
2023-05-11T22:01:57.352Z,11.61
2023-05-11T22:04:27.282Z,11.54
2023-05-11T22:07:00.968Z,11.52
2023-05-11T22:09:31.641Z,11.49
2023-05-11T22:12:00.702Z,11.47
2023-05-11T22:14:29.334Z,11.45
2023-05-11T22:16:58.437Z,11.45
2023-05-11T22:19:27.365Z,11.45
2023-05-11T22:21:58.060Z,11.42
2023-05-11T22:24:27.658Z,11.39
2023-05-11T22:26:56.578Z,11.37
2023-05-11T22:29:25.628Z,11.34
2023-05-11T22:31:54.329Z,11.32
2023-05-11T22:34:23.117Z,11.29
2023-05-11T22:36:52.278Z,11.29
2023-05-11T22:39:23.565Z,11.26
2023-05-11T22:41:52.529Z,11.23
2023-05-11T22:44:21.647Z,11.20
2023-05-11T22:46:51.009Z,11.15
2023-05-11T22:49:19.940Z,11.15
2023-05-11T22:51:48.824Z,11.11
2023-05-11T22:54:17.956Z,11.03
2023-05-11T22:56:48.012Z,10.99
2023-05-11T22:59:16.965Z,10.97
2023-05-11T23:01:45.722Z,10.94
2023-05-11T23:04:15.246Z,10.90
2023-05-11T23:06:45.955Z,10.85
2023-05-11T23:09:15.161Z,10.83
2023-05-11T23:11:44.384Z,10.78
2023-05-11T23:14:14.499Z,10.74
2023-05-11T23:16:43.684Z,10.69
2023-05-11T23:19:12.254Z,10.66
2023-05-11T23:21:40.916Z,10.62
2023-05-11T23:24:09.651Z,10.57
2023-05-11T23:26:38.869Z,10.48
2023-05-11T23:29:07.656Z,10.38
2023-05-11T23:31:38.067Z,10.32
2023-05-11T23:34:07.082Z,10.24
2023-05-11T23:36:36.096Z,10.16
2023-05-11T23:39:05.550Z,10.12
2023-05-11T23:41:34.149Z,10.08
2023-05-11T23:44:03.522Z,10.05
2023-05-11T23:46:32.680Z,9.98
2023-05-11T23:49:03.237Z,9.92
2023-05-11T23:51:35.481Z,9.86
2023-05-11T23:54:04.296Z,9.83
2023-05-11T23:56:32.997Z,9.81
2023-05-11T23:59:02.029Z,9.76
